ePrivacy and GPDR Cookie Consent by Cookie Consent
EmailTwitter


Observations de surface / Royaume-Uni / EGLL (03772)

Régions: Québec | Canada | États-Unis | Europe | France | UK | Ailleurs
Station
Affichage
Infos & localisation pour EGLL (03772) | Aide pour décoder les METARs

Observations prises le 2022-07-03 à 05H50 UTC à LONDON/HEATHROW, UK (EGLL)

Température: 13.0 Celsius

Point de rosée: 10.0 Celsius

Humidité relative: 82%

Vents: Ouest-sud-ouest à 11 km/h ou 6 noeuds.

Pression au niveau moyen de la mer: 101.90 kilopascals.

Visibilité horizontale: 6.21 milles terrestres ou 9.94 kilomètres.

Observation METAR:

EGLL 030550Z AUTO 25006KT 220V280 9999 NCD 13/10 Q1019 NOSIG=